Time;durP1;ratioP1;P1;durP2;ratioP2;P2;SDS_P1;SDS_P2;PMS_P1;PMS_P2;Temp;Humidity;BMP_temperature;BMP_pressure;BME280_temperature;BME280_humidity;BME280_pressure;Samples;Min_cycle;Max_cycle;Signal;HPM_P1;HPM_P2
2023/05/28 00:02:18;;;;;;;;;;;16.30;89.60;;;;;;5059287;28;20034;-60
2023/05/28 00:04:44;;;;;;;;;;;16.20;89.30;;;;;;5060884;28;20003;-59
2023/05/28 00:07:10;;;;;;;;;;;16.20;84.40;;;;;;5060970;28;20269;-60
2023/05/28 00:09:36;;;;;;;;;;;16.20;85.20;;;;;;5060845;28;19915;-59
2023/05/28 00:12:02;;;;;;;;;;;16.10;86.10;;;;;;5059963;28;19913;-60
2023/05/28 00:14:28;;;;;;;;;;;16.10;90.00;;;;;;5061083;28;19977;-60
2023/05/28 00:16:54;;;;;;;;;;;16.10;84.30;;;;;;5061013;28;19909;-59
2023/05/28 00:19:19;;;;;;;;;;;16.10;92.10;;;;;;5060638;28;19923;-59
2023/05/28 00:21:45;;;;;;;;;;;16.00;91.60;;;;;;5060627;28;19909;-60
2023/05/28 00:24:10;;;;;;;;;;;16.00;91.60;;;;;;5060760;28;19908;-59
2023/05/28 00:26:37;;;;;;;;;;;16.00;89.20;;;;;;5060852;28;19917;-59
2023/05/28 00:29:02;;;;;;;;;;;15.90;90.50;;;;;;5060654;28;19916;-59
2023/05/28 00:31:28;;;;;;;;;;;15.90;90.70;;;;;;5060790;28;19916;-60
2023/05/28 00:33:54;;;;;;;;;;;15.90;92.20;;;;;;5060874;28;19908;-60
2023/05/28 00:36:20;;;;;;;;;;;15.90;88.60;;;;;;5060119;28;19913;-59
2023/05/28 00:38:45;;;;;;;;;;;15.90;90.40;;;;;;5060326;28;19916;-59
2023/05/28 00:41:11;;;;;;;;;;;15.90;92.10;;;;;;5060514;28;20015;-60
2023/05/28 00:43:37;;;;;;;;;;;15.90;89.50;;;;;;5060162;28;20256;-59
2023/05/28 00:46:03;;;;;;;;;;;15.80;87.50;;;;;;5059989;28;19974;-59
2023/05/28 00:48:29;;;;;;;;;;;15.80;94.00;;;;;;5060351;28;20284;-60
2023/05/28 00:50:55;;;;;;;;;;;15.80;91.80;;;;;;5060035;28;19916;-59
2023/05/28 00:53:21;;;;;;;;;;;15.70;95.40;;;;;;5059200;28;19909;-59
2023/05/28 00:55:47;;;;;;;;;;;15.70;94.20;;;;;;5060140;28;20356;-59
2023/05/28 00:58:16;;;;;;;;;;;15.70;90.30;;;;;;5059909;28;19954;-59
2023/05/28 01:00:43;;;;;;;;;;;15.70;89.10;;;;;;5059796;28;19915;-59
2023/05/28 01:03:09;;;;;;;;;;;15.60;90.00;;;;;;5059621;28;19908;-60
2023/05/28 01:05:35;;;;;;;;;;;15.60;91.40;;;;;;5059708;28;19944;-60
2023/05/28 01:08:05;;;;;;;;;;;15.60;92.30;;;;;;5060050;28;19916;-58
2023/05/28 01:10:31;;;;;;;;;;;15.60;94.50;;;;;;5059707;28;19915;-59
2023/05/28 01:12:58;;;;;;;;;;;15.60;92.90;;;;;;5059443;28;20338;-59
2023/05/28 01:15:24;;;;;;;;;;;15.60;94.10;;;;;;5059723;28;20382;-59
2023/05/28 01:17:55;;;;;;;;;;;15.60;94.40;;;;;;5059573;28;20003;-59
2023/05/28 01:20:20;;;;;;;;;;;15.60;91.60;;;;;;5059249;28;20003;-59
2023/05/28 01:22:50;;;;;;;;;;;15.60;92.60;;;;;;5059900;28;19952;-59
2023/05/28 01:25:17;;;;;;;;;;;15.50;92.40;;;;;;5059351;28;19966;-59
2023/05/28 01:27:42;;;;;;;;;;;15.60;92.90;;;;;;5059454;28;20015;-60
2023/05/28 01:30:14;;;;;;;;;;;15.60;99.00;;;;;;5059408;28;19956;-59
2023/05/28 01:32:40;;;;;;;;;;;15.60;91.80;;;;;;5059641;28;20005;-59
2023/05/28 01:35:07;;;;;;;;;;;15.50;94.70;;;;;;5059113;28;19909;-59
2023/05/28 01:37:35;;;;;;;;;;;15.50;93.80;;;;;;5059275;28;20327;-59
2023/05/28 01:40:02;;;;;;;;;;;15.50;91.90;;;;;;5059224;28;19969;-59
2023/05/28 01:42:29;;;;;;;;;;;15.40;92.50;;;;;;5059203;28;19915;-59
2023/05/28 01:44:56;;;;;;;;;;;15.40;94.50;;;;;;5059113;28;19935;-59
2023/05/28 01:47:22;;;;;;;;;;;15.40;95.10;;;;;;5058862;28;19988;-59
2023/05/28 01:49:48;;;;;;;;;;;15.40;92.30;;;;;;5058949;28;19934;-59
2023/05/28 01:52:14;;;;;;;;;;;15.40;94.30;;;;;;5058717;28;19972;-59
2023/05/28 01:54:40;;;;;;;;;;;15.40;94.10;;;;;;5056653;28;19913;-59
2023/05/28 01:57:06;;;;;;;;;;;15.40;97.80;;;;;;5056482;28;19915;-59
2023/05/28 01:59:32;;;;;;;;;;;15.40;96.00;;;;;;5056581;28;19931;-59
2023/05/28 02:01:57;;;;;;;;;;;15.40;96.40;;;;;;5056555;28;19932;-59
2023/05/28 02:04:23;;;;;;;;;;;15.40;97.00;;;;;;5056732;28;19992;-60
2023/05/28 02:06:49;;;;;;;;;;;15.40;98.60;;;;;;5057530;28;19920;-60
2023/05/28 02:09:15;;;;;;;;;;;15.30;94.80;;;;;;5039912;28;19909;-59
2023/05/28 02:11:41;;;;;;;;;;;15.30;94.50;;;;;;5056758;28;19916;-60
2023/05/28 02:14:07;;;;;;;;;;;15.30;94.60;;;;;;5057583;28;19944;-59
2023/05/28 02:16:32;;;;;;;;;;;15.30;96.40;;;;;;5058350;28;19916;-60
2023/05/28 02:19:03;;;;;;;;;;;15.30;95.90;;;;;;5058420;28;19909;-59
2023/05/28 02:21:28;;;;;;;;;;;15.30;94.90;;;;;;5057578;28;20375;-59
2023/05/28 02:23:55;;;;;;;;;;;15.30;96.80;;;;;;5057772;28;19912;-59
2023/05/28 02:26:22;;;;;;;;;;;15.20;96.40;;;;;;5058313;28;20268;-59
2023/05/28 02:28:48;;;;;;;;;;;15.20;95.90;;;;;;5058014;28;19924;-59
2023/05/28 02:31:13;;;;;;;;;;;15.20;97.10;;;;;;5058293;28;19913;-59
2023/05/28 02:33:39;;;;;;;;;;;15.20;95.40;;;;;;5058209;28;19913;-59
2023/05/28 02:36:06;;;;;;;;;;;15.10;95.70;;;;;;5058225;28;19909;-59
2023/05/28 02:38:32;;;;;;;;;;;15.10;96.10;;;;;;5058164;28;19977;-59
2023/05/28 02:40:57;;;;;;;;;;;15.10;96.30;;;;;;5058460;28;19909;-59
2023/05/28 02:43:23;;;;;;;;;;;15.10;96.80;;;;;;5058028;28;19999;-59
2023/05/28 02:45:49;;;;;;;;;;;15.00;96.90;;;;;;5058090;28;19995;-59
2023/05/28 02:48:14;;;;;;;;;;;15.00;97.60;;;;;;5058162;28;19992;-59
2023/05/28 02:50:40;;;;;;;;;;;15.00;97.80;;;;;;5057832;28;19977;-59
2023/05/28 02:53:06;;;;;;;;;;;14.90;95.50;;;;;;5057494;28;19970;-59
2023/05/28 02:55:31;;;;;;;;;;;14.90;95.20;;;;;;5057973;28;20285;-59
2023/05/28 02:57:57;;;;;;;;;;;14.90;98.50;;;;;;5058304;28;20470;-59
2023/05/28 03:00:22;;;;;;;;;;;14.90;95.20;;;;;;5057972;28;20070;-60
2023/05/28 03:02:48;;;;;;;;;;;14.90;98.00;;;;;;5058128;28;19909;-59
2023/05/28 03:05:14;;;;;;;;;;;14.90;97.30;;;;;;5057683;28;19909;-59
2023/05/28 03:07:40;;;;;;;;;;;14.90;96.80;;;;;;5057985;28;19913;-59
2023/05/28 03:10:06;;;;;;;;;;;14.90;96.40;;;;;;5057683;28;19909;-59
2023/05/28 03:12:32;;;;;;;;;;;14.90;97.00;;;;;;5057521;28;19924;-59
2023/05/28 03:14:57;;;;;;;;;;;14.90;99.10;;;;;;5057799;28;19909;-59
2023/05/28 03:17:23;;;;;;;;;;;14.90;98.60;;;;;;5060135;28;20420;-60
2023/05/28 03:19:49;;;;;;;;;;;14.90;99.90;;;;;;5061718;28;19958;-60
2023/05/28 03:22:14;;;;;;;;;;;14.80;97.50;;;;;;5061701;28;20011;-60
2023/05/28 03:24:40;;;;;;;;;;;14.80;97.40;;;;;;5061660;28;19908;-59
2023/05/28 03:27:06;;;;;;;;;;;14.80;96.90;;;;;;5061549;28;20272;-59
2023/05/28 03:29:31;;;;;;;;;;;14.80;96.80;;;;;;5061480;28;19908;-59
2023/05/28 03:31:57;;;;;;;;;;;14.80;97.80;;;;;;5061780;28;19909;-59
2023/05/28 03:34:23;;;;;;;;;;;14.80;96.00;;;;;;5061527;28;19916;-60
2023/05/28 03:36:49;;;;;;;;;;;14.70;98.40;;;;;;5061643;28;19955;-59
2023/05/28 03:39:16;;;;;;;;;;;14.70;97.40;;;;;;5061850;28;19909;-60
2023/05/28 03:41:41;;;;;;;;;;;14.70;96.30;;;;;;5061260;28;19974;-59
2023/05/28 03:44:07;;;;;;;;;;;14.70;97.20;;;;;;5061521;28;19909;-59
2023/05/28 03:46:33;;;;;;;;;;;14.70;95.60;;;;;;5061803;28;20279;-59
2023/05/28 03:48:58;;;;;;;;;;;14.60;95.70;;;;;;5061564;28;19908;-60
2023/05/28 03:51:24;;;;;;;;;;;14.60;99.10;;;;;;5061428;28;19915;-60
2023/05/28 03:53:50;;;;;;;;;;;14.60;95.20;;;;;;5061416;28;20271;-59
2023/05/28 03:56:18;;;;;;;;;;;14.60;96.40;;;;;;5061164;28;19924;-59
2023/05/28 03:58:44;;;;;;;;;;;14.50;97.80;;;;;;5061084;28;19948;-59
2023/05/28 04:01:10;;;;;;;;;;;14.50;96.10;;;;;;5060949;28;20407;-59
2023/05/28 04:03:35;;;;;;;;;;;14.50;99.90;;;;;;5061231;28;19909;-59
2023/05/28 04:06:02;;;;;;;;;;;14.50;97.10;;;;;;5060887;28;19972;-60
2023/05/28 04:08:28;;;;;;;;;;;14.50;96.60;;;;;;5043497;28;19920;-60
2023/05/28 04:10:53;;;;;;;;;;;14.50;97.30;;;;;;5061060;28;19980;-60
2023/05/28 04:13:19;;;;;;;;;;;14.50;97.60;;;;;;5060587;28;19921;-59
2023/05/28 04:15:45;;;;;;;;;;;14.50;99.20;;;;;;5060911;28;19909;-60
2023/05/28 04:18:10;;;;;;;;;;;14.40;96.90;;;;;;5060755;28;19959;-59
2023/05/28 04:20:36;;;;;;;;;;;14.40;96.50;;;;;;5060663;28;19909;-59
2023/05/28 04:23:02;;;;;;;;;;;14.40;97.00;;;;;;5060888;28;19962;-59
2023/05/28 04:25:28;;;;;;;;;;;14.40;97.60;;;;;;5060896;28;19915;-59
2023/05/28 04:27:54;;;;;;;;;;;14.30;98.80;;;;;;5059071;28;19912;-59
2023/05/28 04:30:22;;;;;;;;;;;14.30;97.80;;;;;;5060574;28;19915;-59
2023/05/28 04:32:51;;;;;;;;;;;14.30;98.10;;;;;;5060412;28;20374;-59
2023/05/28 04:35:16;;;;;;;;;;;14.40;98.50;;;;;;5060473;28;19992;-59
2023/05/28 04:37:42;;;;;;;;;;;14.30;99.00;;;;;;5060790;28;20371;-59
2023/05/28 04:40:11;;;;;;;;;;;14.30;99.90;;;;;;5060338;28;20399;-59
2023/05/28 04:42:41;;;;;;;;;;;14.30;99.90;;;;;;5060394;28;19908;-58
2023/05/28 04:45:08;;;;;;;;;;;14.20;99.20;;;;;;5060386;28;19913;-59
2023/05/28 04:47:34;;;;;;;;;;;14.30;99.20;;;;;;5060168;28;19917;-59
2023/05/28 04:50:01;;;;;;;;;;;14.20;98.80;;;;;;5060063;28;19948;-59
2023/05/28 04:52:26;;;;;;;;;;;14.20;98.10;;;;;;5060330;28;19909;-59
2023/05/28 04:54:52;;;;;;;;;;;14.20;99.00;;;;;;5059911;28;20372;-58
2023/05/28 04:57:18;;;;;;;;;;;14.20;98.80;;;;;;5059986;28;19920;-59
2023/05/28 04:59:43;;;;;;;;;;;14.20;98.40;;;;;;5060024;28;19913;-59
2023/05/28 05:02:09;;;;;;;;;;;14.10;98.40;;;;;;5060080;28;19916;-59
2023/05/28 05:04:35;;;;;;;;;;;14.10;99.90;;;;;;5060050;28;19966;-59
2023/05/28 05:07:00;;;;;;;;;;;14.20;99.20;;;;;;5059755;28;19991;-60
2023/05/28 05:09:27;;;;;;;;;;;14.20;98.50;;;;;;5059513;28;19912;-59
2023/05/28 05:11:52;;;;;;;;;;;14.20;99.90;;;;;;5060060;28;19909;-60
2023/05/28 05:14:18;;;;;;;;;;;14.20;99.90;;;;;;5059336;28;19932;-59
2023/05/28 05:16:44;;;;;;;;;;;14.20;99.70;;;;;;5059539;28;19912;-59
2023/05/28 05:19:09;;;;;;;;;;;14.20;99.90;;;;;;5059371;28;20245;-59
2023/05/28 05:21:35;;;;;;;;;;;14.20;99.90;;;;;;5059517;28;19909;-59
2023/05/28 05:24:01;;;;;;;;;;;14.20;99.90;;;;;;5059516;28;19916;-59
2023/05/28 05:26:27;;;;;;;;;;;14.20;99.90;;;;;;5059210;28;20356;-59
2023/05/28 05:28:52;;;;;;;;;;;14.30;99.90;;;;;;5059564;28;19909;-59
2023/05/28 05:31:18;;;;;;;;;;;14.30;99.40;;;;;;5058935;28;20394;-58
2023/05/28 05:33:44;;;;;;;;;;;14.30;99.60;;;;;;5058890;28;20378;-59
2023/05/28 05:36:10;;;;;;;;;;;14.30;99.90;;;;;;5059277;28;20338;-59
2023/05/28 05:38:36;;;;;;;;;;;14.30;99.80;;;;;;5059043;28;20011;-59
2023/05/28 05:41:02;;;;;;;;;;;14.30;99.90;;;;;;5058484;28;20445;-59
2023/05/28 05:43:28;;;;;;;;;;;14.30;99.90;;;;;;5059026;28;19913;-59
2023/05/28 05:45:53;;;;;;;;;;;14.40;99.90;;;;;;5059147;28;19958;-59
2023/05/28 05:48:19;;;;;;;;;;;14.40;99.90;;;;;;5059267;28;19963;-59
2023/05/28 05:50:51;;;;;;;;;;;14.40;99.90;;;;;;5059236;28;19970;-60
2023/05/28 05:53:17;;;;;;;;;;;14.50;99.90;;;;;;5058190;28;19948;-59
2023/05/28 05:55:43;;;;;;;;;;;14.50;99.90;;;;;;5058250;28;19920;-59
2023/05/28 05:58:09;;;;;;;;;;;14.50;99.90;;;;;;5058416;28;19978;-60
2023/05/28 06:00:35;;;;;;;;;;;14.60;99.90;;;;;;5058547;28;19908;-58
2023/05/28 06:03:00;;;;;;;;;;;14.60;99.90;;;;;;5058038;28;19908;-58
2023/05/28 06:05:26;;;;;;;;;;;14.60;99.90;;;;;;5056278;28;19947;-59
2023/05/28 06:07:52;;;;;;;;;;;14.70;99.90;;;;;;5056338;28;19912;-59
2023/05/28 06:10:18;;;;;;;;;;;14.70;99.90;;;;;;5058566;28;19909;-59
2023/05/28 06:12:43;;;;;;;;;;;14.70;99.90;;;;;;5057260;28;19925;-59
2023/05/28 06:15:09;;;;;;;;;;;14.80;99.90;;;;;;5057524;28;19919;-58
2023/05/28 06:17:35;;;;;;;;;;;14.80;99.90;;;;;;5058401;28;19909;-59
2023/05/28 06:20:01;;;;;;;;;;;14.90;99.90;;;;;;5058318;28;19909;-59
2023/05/28 06:22:26;;;;;;;;;;;14.90;99.90;;;;;;5058707;28;19916;-59
2023/05/28 06:24:54;;;;;;;;;;;14.90;99.90;;;;;;5057937;28;19916;-59
2023/05/28 06:27:20;;;;;;;;;;;15.00;99.90;;;;;;5057961;28;19936;-59
2023/05/28 06:29:46;;;;;;;;;;;15.00;99.90;;;;;;5057871;28;19909;-59
2023/05/28 06:32:13;;;;;;;;;;;15.10;99.90;;;;;;5058255;28;20017;-59
2023/05/28 06:34:38;;;;;;;;;;;15.10;99.90;;;;;;5056871;28;19958;-59
2023/05/28 06:37:04;;;;;;;;;;;15.20;99.90;;;;;;5057785;28;19921;-58
2023/05/28 06:39:30;;;;;;;;;;;15.30;99.90;;;;;;5058093;28;19908;-59
2023/05/28 06:41:56;;;;;;;;;;;15.40;99.90;;;;;;5057776;28;20478;-59
2023/05/28 06:44:21;;;;;;;;;;;15.40;99.90;;;;;;5039982;28;19991;-59
2023/05/28 06:46:47;;;;;;;;;;;15.40;99.90;;;;;;5057613;28;19967;-59
2023/05/28 06:49:13;;;;;;;;;;;15.50;99.90;;;;;;5057667;28;19909;-58
2023/05/28 06:51:38;;;;;;;;;;;15.60;99.90;;;;;;5039489;28;19908;-59
2023/05/28 06:54:04;;;;;;;;;;;15.70;99.90;;;;;;5057405;28;20287;-58
2023/05/28 06:56:30;;;;;;;;;;;15.70;99.90;;;;;;5058091;28;19909;-58
2023/05/28 06:58:55;;;;;;;;;;;15.60;99.90;;;;;;5057805;28;19916;-59
2023/05/28 07:01:21;;;;;;;;;;;15.90;99.90;;;;;;5057209;28;19909;-59
2023/05/28 07:03:47;;;;;;;;;;;15.90;99.90;;;;;;5057221;28;19916;-59
2023/05/28 07:06:13;;;;;;;;;;;16.00;99.90;;;;;;5057452;28;19913;-59
2023/05/28 07:08:45;;;;;;;;;;;16.10;99.90;;;;;;5056000;28;19908;-59
2023/05/28 07:11:11;;;;;;;;;;;16.20;99.90;;;;;;5055063;28;19909;-59
2023/05/28 07:13:37;;;;;;;;;;;16.30;99.90;;;;;;5056829;28;19971;-59
2023/05/28 07:16:02;;;;;;;;;;;16.30;99.90;;;;;;5056775;28;19909;-59
2023/05/28 07:18:28;;;;;;;;;;;16.40;99.90;;;;;;5055764;28;19940;-59
2023/05/28 07:20:54;;;;;;;;;;;16.50;99.90;;;;;;5057517;28;19913;-59
2023/05/28 07:23:19;;;;;;;;;;;16.60;99.90;;;;;;5057420;28;20019;-59
2023/05/28 07:25:45;;;;;;;;;;;16.70;99.90;;;;;;5057502;28;20255;-59
2023/05/28 07:28:11;;;;;;;;;;;16.80;99.90;;;;;;5057278;28;19916;-59
2023/05/28 07:30:36;;;;;;;;;;;17.00;99.90;;;;;;5057343;28;19931;-59
2023/05/28 07:33:02;;;;;;;;;;;17.00;99.90;;;;;;5057333;28;20371;-59
2023/05/28 07:35:28;;;;;;;;;;;17.10;99.90;;;;;;5057662;28;20367;-59
2023/05/28 07:37:54;;;;;;;;;;;17.20;99.90;;;;;;5057798;28;20265;-59
2023/05/28 07:40:19;;;;;;;;;;;17.30;99.90;;;;;;5057233;28;19909;-60
2023/05/28 07:42:45;;;;;;;;;;;17.50;99.90;;;;;;5056899;28;20364;-58
2023/05/28 07:45:11;;;;;;;;;;;17.50;99.90;;;;;;5057214;28;19909;-59
2023/05/28 07:47:37;;;;;;;;;;;17.60;99.90;;;;;;5056997;28;19912;-60
2023/05/28 07:50:06;;;;;;;;;;;17.70;99.90;;;;;;5056761;28;19915;-60
2023/05/28 07:52:32;;;;;;;;;;;17.80;99.90;;;;;;5057164;28;19909;-59
2023/05/28 07:54:58;;;;;;;;;;;17.90;99.90;;;;;;5057859;28;19908;-59
2023/05/28 07:57:24;;;;;;;;;;;18.00;99.90;;;;;;5057706;28;19952;-59
2023/05/28 07:59:50;;;;;;;;;;;18.10;99.90;;;;;;5057580;28;19916;-59
2023/05/28 08:02:16;;;;;;;;;;;18.20;99.90;;;;;;5057777;28;19909;-59
2023/05/28 08:04:41;;;;;;;;;;;18.30;99.90;;;;;;5060210;28;19916;-59
2023/05/28 08:07:07;;;;;;;;;;;18.40;99.90;;;;;;5061334;28;19920;-59
2023/05/28 08:09:33;;;;;;;;;;;18.50;99.90;;;;;;5061272;28;19923;-59
2023/05/28 08:12:00;;;;;;;;;;;18.50;99.90;;;;;;5061040;28;19915;-58
2023/05/28 08:14:25;;;;;;;;;;;18.60;99.90;;;;;;5060762;28;19921;-59
2023/05/28 08:16:51;;;;;;;;;;;18.70;99.90;;;;;;5061041;28;20429;-59
2023/05/28 08:19:16;;;;;;;;;;;18.80;99.90;;;;;;5061023;28;19976;-59
2023/05/28 08:21:42;;;;;;;;;;;18.90;99.90;;;;;;5061175;28;19913;-60
2023/05/28 08:24:10;;;;;;;;;;;18.90;99.90;;;;;;5060732;28;19909;-59
2023/05/28 08:26:36;;;;;;;;;;;19.00;99.90;;;;;;5060494;28;19919;-59
2023/05/28 08:29:03;;;;;;;;;;;19.10;99.90;;;;;;5061163;28;20011;-59
2023/05/28 08:31:29;;;;;;;;;;;19.20;99.90;;;;;;5060548;28;20284;-59
2023/05/28 08:33:54;;;;;;;;;;;19.30;99.90;;;;;;5060678;28;19959;-60
2023/05/28 08:36:20;;;;;;;;;;;19.40;99.90;;;;;;5061153;28;19909;-59
2023/05/28 08:38:46;;;;;;;;;;;19.50;99.90;;;;;;5060807;28;19916;-60
2023/05/28 08:41:11;;;;;;;;;;;19.60;99.90;;;;;;5060710;28;19932;-59
2023/05/28 08:43:37;;;;;;;;;;;19.70;99.90;;;;;;5060162;28;19947;-59
2023/05/28 08:46:03;;;;;;;;;;;19.80;99.90;;;;;;5059734;28;19913;-60
2023/05/28 08:48:32;;;;;;;;;;;19.90;99.90;;;;;;5059227;28;19944;-60
2023/05/28 08:50:57;;;;;;;;;;;19.90;99.90;;;;;;5059288;28;20301;-60
2023/05/28 08:53:24;;;;;;;;;;;20.00;99.90;;;;;;5059986;28;19909;-59
2023/05/28 08:55:50;;;;;;;;;;;20.10;99.90;;;;;;5060393;28;19916;-60
2023/05/28 08:58:16;;;;;;;;;;;20.30;99.90;;;;;;5059995;28;19956;-59
2023/05/28 09:00:42;;;;;;;;;;;20.40;99.90;;;;;;5060239;28;19909;-60
2023/05/28 09:03:07;;;;;;;;;;;20.40;99.90;;;;;;5060073;28;19915;-59
2023/05/28 09:05:39;;;;;;;;;;;20.50;99.90;;;;;;5060348;28;19912;-60
2023/05/28 09:08:12;;;;;;;;;;;20.50;99.90;;;;;;5060090;28;19913;-59
2023/05/28 09:10:38;;;;;;;;;;;20.60;99.90;;;;;;5059729;28;19947;-60
2023/05/28 09:13:04;;;;;;;;;;;20.70;99.90;;;;;;5058739;28;20016;-60
2023/05/28 09:15:30;;;;;;;;;;;20.80;99.90;;;;;;5058187;28;20383;-60
2023/05/28 09:17:58;;;;;;;;;;;20.90;99.90;;;;;;5059430;28;19908;-59
2023/05/28 09:20:24;;;;;;;;;;;20.90;99.90;;;;;;5058549;28;19909;-59
2023/05/28 09:23:07;;;;;;;;;;;21.00;99.90;;;;;;5059340;28;19956;-59
2023/05/28 09:25:35;;;;;;;;;;;21.10;99.50;;;;;;5060230;28;19909;-59
2023/05/28 09:28:02;;;;;;;;;;;21.30;98.80;;;;;;5059559;28;20283;-60
2023/05/28 09:30:29;;;;;;;;;;;21.40;99.90;;;;;;5059623;28;19909;-60
2023/05/28 09:33:08;;;;;;;;;;;21.60;99.90;;;;;;5059669;28;19909;-60
2023/05/28 09:35:34;;;;;;;;;;;21.70;96.50;;;;;;5059714;28;19990;-59
2023/05/28 09:38:04;;;;;;;;;;;21.80;96.20;;;;;;5059568;28;19916;-59
2023/05/28 09:40:30;;;;;;;;;;;21.90;94.30;;;;;;5059419;28;19959;-59
2023/05/28 09:42:56;;;;;;;;;;;22.00;95.00;;;;;;5059468;28;19912;-60
2023/05/28 09:45:25;;;;;;;;;;;22.20;97.70;;;;;;5059562;28;19909;-59
2023/05/28 09:47:51;;;;;;;;;;;22.50;96.20;;;;;;5059046;28;19913;-60
2023/05/28 09:50:16;;;;;;;;;;;22.70;96.40;;;;;;5059292;28;19915;-60
2023/05/28 09:52:46;;;;;;;;;;;22.90;97.40;;;;;;5059298;28;19913;-60
2023/05/28 09:55:23;;;;;;;;;;;23.10;90.30;;;;;;5059637;28;19916;-59
2023/05/28 09:58:15;;;;;;;;;;;23.30;93.00;;;;;;5059357;28;19909;-59
2023/05/28 10:00:44;;;;;;;;;;;23.50;83.80;;;;;;5056893;28;19909;-60
2023/05/28 10:03:13;;;;;;;;;;;23.70;96.40;;;;;;5058828;28;20379;-60
2023/05/28 10:05:40;;;;;;;;;;;24.00;87.20;;;;;;5059382;28;19998;-60
2023/05/28 10:08:07;;;;;;;;;;;24.70;99.90;;;;;;5058682;28;20004;-60
2023/05/28 10:10:34;;;;;;;;;;;25.30;91.30;;;;;;5059082;28;19909;-60
2023/05/28 10:13:00;;;;;;;;;;;25.90;73.50;;;;;;5058977;28;19921;-60
2023/05/28 10:15:26;;;;;;;;;;;26.60;79.00;;;;;;5058744;28;19913;-60
2023/05/28 10:17:52;;;;;;;;;;;27.40;81.70;;;;;;5059249;28;19915;-60
2023/05/28 10:20:18;;;;;;;;;;;28.00;76.70;;;;;;5058891;28;19909;-61
2023/05/28 10:22:44;;;;;;;;;;;29.10;69.40;;;;;;5058484;28;19909;-60
2023/05/28 10:25:10;;;;;;;;;;;29.30;63.60;;;;;;5058826;28;19951;-60
2023/05/28 10:27:37;;;;;;;;;;;29.80;66.90;;;;;;5058289;28;20391;-61
2023/05/28 10:30:03;;;;;;;;;;;30.30;61.50;;;;;;5058729;28;19947;-60
2023/05/28 10:32:29;;;;;;;;;;;30.70;63.30;;;;;;5058457;28;19913;-61
2023/05/28 10:35:02;;;;;;;;;;;30.80;58.70;;;;;;5058721;28;19916;-61
2023/05/28 10:37:27;;;;;;;;;;;31.30;56.70;;;;;;5058350;28;19992;-60
2023/05/28 10:39:53;;;;;;;;;;;32.20;58.30;;;;;;5058205;28;19952;-61
2023/05/28 10:42:21;;;;;;;;;;;33.40;56.80;;;;;;5058350;28;19909;-61
2023/05/28 10:45:07;;;;;;;;;;;34.20;47.80;;;;;;5058547;28;19932;-61
2023/05/28 10:47:34;;;;;;;;;;;34.00;50.10;;;;;;5058006;28;20265;-61
2023/05/28 10:50:00;;;;;;;;;;;33.90;52.00;;;;;;5058417;28;19931;-60
2023/05/28 10:52:26;;;;;;;;;;;33.40;47.60;;;;;;5058094;28;19916;-61
2023/05/28 10:54:52;;;;;;;;;;;33.10;45.70;;;;;;5057467;28;19909;-61
2023/05/28 10:57:19;;;;;;;;;;;31.90;45.60;;;;;;5057972;28;19912;-61
2023/05/28 10:59:47;;;;;;;;;;;31.90;43.90;;;;;;5057639;28;19908;-61
2023/05/28 11:02:24;;;;;;;;;;;32.40;45.90;;;;;;5057819;28;19916;-61
2023/05/28 11:04:50;;;;;;;;;;;33.10;45.30;;;;;;5057922;28;19913;-60
2023/05/28 11:07:16;;;;;;;;;;;34.30;45.90;;;;;;5057683;28;20346;-61
2023/05/28 11:09:42;;;;;;;;;;;34.70;41.60;;;;;;5058236;28;19915;-61
2023/05/28 11:12:08;;;;;;;;;;;34.00;45.30;;;;;;5057554;28;19913;-60
2023/05/28 11:14:35;;;;;;;;;;;34.60;44.00;;;;;;5057794;28;19917;-61
2023/05/28 11:17:01;;;;;;;;;;;34.80;42.80;;;;;;5057928;28;19912;-61
2023/05/28 11:19:26;;;;;;;;;;;35.10;42.10;;;;;;5057757;28;19931;-60
2023/05/28 11:21:52;;;;;;;;;;;34.70;40.30;;;;;;5058110;28;20272;-61
2023/05/28 11:24:18;;;;;;;;;;;35.00;40.20;;;;;;5057741;28;19916;-62
2023/05/28 11:26:43;;;;;;;;;;;35.50;42.80;;;;;;5057587;28;19988;-62
2023/05/28 11:29:10;;;;;;;;;;;36.00;40.50;;;;;;5057683;28;19915;-62
2023/05/28 11:31:41;;;;;;;;;;;36.00;41.50;;;;;;5057772;28;19959;-61
2023/05/28 11:34:08;;;;;;;;;;;36.00;41.10;;;;;;5057604;28;19909;-61
2023/05/28 11:36:40;;;;;;;;;;;35.40;40.40;;;;;;5057404;28;19948;-61
2023/05/28 11:39:06;;;;;;;;;;;35.20;38.60;;;;;;5060830;28;19944;-61
2023/05/28 11:41:31;;;;;;;;;;;34.80;37.70;;;;;;5061245;28;19909;-61
2023/05/28 11:43:57;;;;;;;;;;;34.90;39.20;;;;;;5061171;28;19916;-61
2023/05/28 11:46:23;;;;;;;;;;;35.30;38.60;;;;;;5061355;28;19913;-61
2023/05/28 11:48:50;;;;;;;;;;;34.90;39.10;;;;;;5061366;28;19987;-61
2023/05/28 11:51:18;;;;;;;;;;;35.40;37.60;;;;;;5061124;28;19913;-61
2023/05/28 11:53:46;;;;;;;;;;;35.40;38.90;;;;;;5061451;28;19909;-61
2023/05/28 11:56:21;;;;;;;;;;;35.40;36.70;;;;;;5060733;28;20505;-61
2023/05/28 11:58:48;;;;;;;;;;;34.00;37.40;;;;;;5040202;28;20391;-61
2023/05/28 12:01:17;;;;;;;;;;;33.90;38.10;;;;;;5041532;28;19956;-61
2023/05/28 12:03:43;;;;;;;;;;;34.20;37.20;;;;;;5044654;28;20295;-61
2023/05/28 12:06:08;;;;;;;;;;;34.10;37.20;;;;;;5060991;28;19909;-61
2023/05/28 12:08:34;;;;;;;;;;;32.80;37.80;;;;;;5060927;28;20434;-61
2023/05/28 12:11:01;;;;;;;;;;;32.20;38.60;;;;;;5059862;28;19908;-61
2023/05/28 12:13:30;;;;;;;;;;;32.70;39.30;;;;;;5057558;28;19924;-61
2023/05/28 12:16:06;;;;;;;;;;;33.70;38.70;;;;;;5060905;28;19909;-61
2023/05/28 12:18:50;;;;;;;;;;;33.70;37.80;;;;;;5058883;28;19915;-61
2023/05/28 12:21:20;;;;;;;;;;;33.50;37.80;;;;;;5058665;28;19976;-61
2023/05/28 12:23:46;;;;;;;;;;;34.00;38.20;;;;;;5060505;28;20268;-61
2023/05/28 12:26:14;;;;;;;;;;;34.70;38.60;;;;;;5059448;28;19913;-61
2023/05/28 12:28:40;;;;;;;;;;;34.10;36.30;;;;;;5060587;28;19915;-61
2023/05/28 12:31:06;;;;;;;;;;;34.20;37.70;;;;;;5060753;28;19912;-61
2023/05/28 12:33:32;;;;;;;;;;;34.70;38.20;;;;;;5060790;28;19916;-61
2023/05/28 12:35:59;;;;;;;;;;;35.10;35.50;;;;;;5059885;28;19931;-61
2023/05/28 12:38:25;;;;;;;;;;;35.40;35.70;;;;;;5060249;28;19909;-61
2023/05/28 12:40:51;;;;;;;;;;;35.70;35.80;;;;;;5059869;28;19916;-61
2023/05/28 12:43:16;;;;;;;;;;;35.80;35.80;;;;;;5060657;28;19958;-61
2023/05/28 12:45:42;;;;;;;;;;;35.80;34.90;;;;;;5060535;28;19909;-61
2023/05/28 12:48:08;;;;;;;;;;;35.90;34.30;;;;;;5060431;28;19921;-61
2023/05/28 12:50:34;;;;;;;;;;;35.90;34.00;;;;;;5059004;28;20464;-61
2023/05/28 12:53:02;;;;;;;;;;;35.30;33.70;;;;;;5060418;28;19916;-61
2023/05/28 12:55:28;;;;;;;;;;;35.40;34.90;;;;;;5060080;28;19931;-61
2023/05/28 12:57:54;;;;;;;;;;;35.70;33.60;;;;;;5060528;28;20322;-61
2023/05/28 13:00:19;;;;;;;;;;;35.80;33.90;;;;;;5059926;28;19909;-61
2023/05/28 13:02:45;;;;;;;;;;;35.50;33.60;;;;;;5059753;28;19909;-61
2023/05/28 13:05:11;;;;;;;;;;;35.70;33.70;;;;;;5059928;28;19913;-61
2023/05/28 13:07:36;;;;;;;;;;;35.00;31.80;;;;;;5059966;28;20007;-61
2023/05/28 13:10:04;;;;;;;;;;;34.80;32.70;;;;;;5059920;28;20290;-61
2023/05/28 13:12:30;;;;;;;;;;;34.70;33.10;;;;;;5059532;28;19956;-61
2023/05/28 13:14:56;;;;;;;;;;;34.30;31.10;;;;;;5058980;28;20004;-61
2023/05/28 13:17:22;;;;;;;;;;;33.10;32.10;;;;;;5059298;28;19944;-61
2023/05/28 13:19:48;;;;;;;;;;;33.30;33.20;;;;;;5058795;28;19923;-61
2023/05/28 13:22:14;;;;;;;;;;;33.80;32.80;;;;;;5058874;28;19978;-61
2023/05/28 13:24:40;;;;;;;;;;;33.50;33.10;;;;;;5059540;28;19909;-61
2023/05/28 13:27:06;;;;;;;;;;;33.60;32.50;;;;;;5058934;28;19912;-61
2023/05/28 13:29:32;;;;;;;;;;;33.40;32.40;;;;;;5058924;28;20367;-61
2023/05/28 13:31:57;;;;;;;;;;;33.60;32.20;;;;;;5059079;28;19908;-61
2023/05/28 13:34:23;;;;;;;;;;;33.40;31.70;;;;;;5059345;28;19909;-61
2023/05/28 13:36:49;;;;;;;;;;;33.20;31.80;;;;;;5059249;28;20015;-61
2023/05/28 13:39:14;;;;;;;;;;;33.50;32.30;;;;;;5059396;28;20344;-61
2023/05/28 13:41:40;;;;;;;;;;;33.10;33.10;;;;;;5059249;28;19909;-61
2023/05/28 13:44:06;;;;;;;;;;;33.20;33.20;;;;;;5058880;28;19908;-61
2023/05/28 13:46:31;;;;;;;;;;;32.80;31.70;;;;;;5059141;28;19912;-61
2023/05/28 13:48:57;;;;;;;;;;;33.00;32.40;;;;;;5058904;28;19916;-60
2023/05/28 13:51:23;;;;;;;;;;;32.90;32.20;;;;;;5058815;28;19916;-61
2023/05/28 13:53:49;;;;;;;;;;;32.90;31.70;;;;;;5058526;28;19954;-61
2023/05/28 13:56:15;;;;;;;;;;;32.10;32.00;;;;;;5058779;28;19935;-61
2023/05/28 13:58:41;;;;;;;;;;;32.30;32.30;;;;;;5058825;28;19960;-61
2023/05/28 14:01:06;;;;;;;;;;;32.30;32.60;;;;;;5058336;28;19931;-60
2023/05/28 14:03:32;;;;;;;;;;;31.90;32.30;;;;;;5058795;28;19908;-61
2023/05/28 14:05:58;;;;;;;;;;;31.70;33.00;;;;;;5058507;28;20390;-61
2023/05/28 14:08:24;;;;;;;;;;;32.10;33.10;;;;;;5058566;28;19913;-61
2023/05/28 14:10:50;;;;;;;;;;;32.40;32.80;;;;;;5058396;28;19909;-60
2023/05/28 14:13:15;;;;;;;;;;;32.60;33.10;;;;;;5058215;28;19944;-61